Time;durP1;ratioP1;P1;durP2;ratioP2;P2;SDS_P1;SDS_P2;PMS_P1;PMS_P2;Temp;Humidity;BMP_temperature;BMP_pressure;BME280_temperature;BME280_humidity;BME280_pressure;Samples;Min_cycle;Max_cycle;Signal;HPM_P1;HPM_P2
2022/10/06 00:00:29;;;;;;;19.00;2.03;;;13.30;99.90;;;;;;4837822;29;20049;-65
2022/10/06 00:02:54;;;;;;;6.72;1.90;;;13.30;99.90;;;;;;4859218;29;20518;-64
2022/10/06 00:05:20;;;;;;;13.20;1.80;;;13.20;99.90;;;;;;4856730;29;20038;-64
2022/10/06 00:07:46;;;;;;;9.80;1.92;;;13.20;99.90;;;;;;4856628;29;20073;-65
2022/10/06 00:10:12;;;;;;;12.10;2.55;;;13.20;99.90;;;;;;4850179;29;20068;-65
2022/10/06 00:12:40;;;;;;;10.80;2.28;;;13.20;99.90;;;;;;4852062;29;20049;-64
2022/10/06 00:15:06;;;;;;;8.48;2.08;;;13.10;99.90;;;;;;4851203;29;20063;-64
2022/10/06 00:17:32;;;;;;;8.18;1.77;;;13.10;99.90;;;;;;4851194;29;20046;-64
2022/10/06 00:19:57;;;;;;;12.30;2.15;;;13.20;99.90;;;;;;4848017;29;20056;-63
2022/10/06 00:22:23;;;;;;;16.60;2.47;;;13.10;99.90;;;;;;4850749;29;20073;-66
2022/10/06 00:24:49;;;;;;;10.20;2.22;;;13.10;99.90;;;;;;4847726;29;20048;-64
2022/10/06 00:27:14;;;;;;;14.30;2.95;;;13.20;99.90;;;;;;4849938;29;20045;-64
2022/10/06 00:29:41;;;;;;;15.32;2.67;;;13.10;99.90;;;;;;4897185;23;20663;-64
2022/10/06 00:32:08;;;;;;;11.57;2.38;;;13.10;99.90;;;;;;4853565;29;20491;-64
2022/10/06 00:34:37;;;;;;;17.75;2.10;;;13.10;99.90;;;;;;4837203;29;20180;-64
2022/10/06 00:37:03;;;;;;;16.25;3.10;;;13.10;99.90;;;;;;4857261;29;20049;-64
2022/10/06 00:39:29;;;;;;;17.42;2.65;;;13.10;99.90;;;;;;4855799;29;20051;-64
2022/10/06 00:41:54;;;;;;;10.23;2.22;;;13.10;99.90;;;;;;4857453;29;20520;-64
2022/10/06 00:44:20;;;;;;;11.32;2.10;;;13.10;99.90;;;;;;4855901;29;20133;-64
2022/10/06 00:46:49;;;;;;;16.55;2.25;;;13.00;99.90;;;;;;4858087;29;20098;-64
2022/10/06 00:49:29;;;;;;;13.38;2.70;;;13.10;99.90;;;;;;4853982;29;20054;-64
2022/10/06 00:52:01;;;;;;;10.52;2.50;;;13.00;99.90;;;;;;4858450;29;20098;-64
2022/10/06 00:54:27;;;;;;;9.45;2.28;;;13.00;99.90;;;;;;4858194;29;20113;-64
2022/10/06 00:56:53;;;;;;;8.98;2.10;;;13.00;99.90;;;;;;4855127;29;20045;-61
2022/10/06 00:59:19;;;;;;;13.38;2.88;;;13.00;99.90;;;;;;4856905;29;20044;-67
2022/10/06 01:01:55;;;;;;;13.95;2.15;;;12.90;99.90;;;;;;4855277;29;20408;-63
2022/10/06 01:04:23;;;;;;;18.05;2.75;;;13.00;99.90;;;;;;4853606;29;20357;-65
2022/10/06 01:06:53;;;;;;;15.52;3.33;;;12.90;99.90;;;;;;4837081;29;20114;-63
2022/10/06 01:09:20;;;;;;;16.58;2.63;;;12.90;99.90;;;;;;4851480;29;20126;-63
2022/10/06 01:11:48;;;;;;;15.90;2.65;;;12.80;99.90;;;;;;4852867;29;20174;-65
2022/10/06 01:14:15;;;;;;;17.55;2.60;;;12.80;99.90;;;;;;4859377;29;20057;-63
2022/10/06 01:16:44;;;;;;;17.17;2.80;;;12.70;99.90;;;;;;4855069;29;20170;-65
2022/10/06 01:19:32;;;;;;;10.77;2.30;;;12.80;99.90;;;;;;4853866;29;20049;-65
2022/10/06 01:22:03;;;;;;;11.07;2.67;;;12.70;99.90;;;;;;4856517;29;20177;-65
2022/10/06 01:24:29;;;;;;;14.15;2.25;;;12.70;99.90;;;;;;4847503;29;20060;-68
2022/10/06 01:26:56;;;;;;;14.05;2.58;;;12.70;99.90;;;;;;4852506;29;20057;-64
2022/10/06 01:29:22;;;;;;;13.25;2.58;;;12.70;99.90;;;;;;4837347;29;20068;-67
2022/10/06 01:31:47;;;;;;;12.65;2.30;;;12.70;99.90;;;;;;4852564;29;20061;-64
2022/10/06 01:34:13;;;;;;;12.75;1.95;;;12.70;99.90;;;;;;4856865;29;20057;-65
2022/10/06 01:36:40;;;;;;;15.73;2.30;;;12.70;99.90;;;;;;4855109;29;20081;-64
2022/10/06 01:39:06;;;;;;;10.95;2.10;;;12.80;99.90;;;;;;4857640;29;20086;-64
2022/10/06 01:41:32;;;;;;;12.45;2.20;;;12.80;99.90;;;;;;4856716;29;20083;-64
2022/10/06 01:43:58;;;;;;;22.02;2.67;;;12.70;99.90;;;;;;4856908;29;20098;-64
2022/10/06 01:46:24;;;;;;;16.50;2.67;;;12.70;99.90;;;;;;4860498;29;20049;-63
2022/10/06 01:48:50;;;;;;;25.58;3.60;;;12.70;99.90;;;;;;4857448;29;20110;-64
2022/10/06 01:51:16;;;;;;;13.23;2.53;;;12.70;99.90;;;;;;4845645;29;20443;-64
2022/10/06 01:53:42;;;;;;;14.60;2.78;;;12.70;99.90;;;;;;4862132;29;20054;-64
2022/10/06 01:56:08;;;;;;;16.10;2.17;;;12.60;99.90;;;;;;4860757;29;20045;-64
2022/10/06 01:58:33;;;;;;;17.65;2.72;;;12.60;99.90;;;;;;4857390;29;20049;-64
2022/10/06 02:01:06;;;;;;;12.63;2.47;;;12.60;99.90;;;;;;4858234;29;20174;-65
2022/10/06 02:03:34;;;;;;;16.27;2.75;;;12.60;99.90;;;;;;4864813;29;20086;-64
2022/10/06 02:06:00;;;;;;;18.60;2.63;;;12.50;99.90;;;;;;4862279;29;20087;-64
2022/10/06 02:08:25;;;;;;;13.38;2.65;;;12.50;99.90;;;;;;4860873;29;20124;-66
2022/10/06 02:10:51;;;;;;;12.75;2.40;;;12.50;99.90;;;;;;4859956;29;20057;-64
2022/10/06 02:13:16;;;;;;;10.20;2.00;;;12.50;99.90;;;;;;4858638;29;20053;-65
2022/10/06 02:15:42;;;;;;;15.93;2.70;;;12.50;99.90;;;;;;4852358;29;20044;-64
2022/10/06 02:18:08;;;;;;;17.67;3.00;;;12.40;99.90;;;;;;4852605;29;20146;-65
2022/10/06 02:20:33;;;;;;;10.13;2.65;;;12.40;99.90;;;;;;4860679;29;20120;-65
2022/10/06 02:22:59;;;;;;;12.95;3.42;;;12.50;99.90;;;;;;4828205;29;20056;-64
2022/10/06 02:25:26;;;;;;;18.70;2.42;;;12.40;99.90;;;;;;4861004;29;20058;-63
2022/10/06 02:27:53;;;;;;;14.45;2.67;;;12.30;99.90;;;;;;4857368;29;20052;-64
2022/10/06 02:30:18;;;;;;;14.73;2.77;;;12.30;99.90;;;;;;4858789;29;20060;-65
2022/10/06 02:32:44;;;;;;;16.40;3.15;;;12.30;99.90;;;;;;4856544;29;20045;-64
2022/10/06 02:35:14;;;;;;;11.35;2.13;;;12.30;99.90;;;;;;4858334;29;20049;-64
2022/10/06 02:37:42;;;;;;;17.77;2.67;;;12.30;99.90;;;;;;4849051;29;20484;-64
2022/10/06 02:40:08;;;;;;;11.05;2.45;;;12.40;99.90;;;;;;4858657;29;20073;-64
2022/10/06 02:42:36;;;;;;;11.85;2.35;;;12.40;99.90;;;;;;4861535;29;20472;-67
2022/10/06 02:45:08;;;;;;;20.65;2.80;;;12.40;99.90;;;;;;4854629;29;20057;-65
2022/10/06 02:47:35;;;;;;;20.13;2.38;;;12.40;99.90;;;;;;4843951;29;20045;-64
2022/10/06 02:50:04;;;;;;;12.45;2.90;;;12.50;99.90;;;;;;4861076;29;20060;-65
2022/10/06 02:52:35;;;;;;;16.33;2.70;;;12.40;99.90;;;;;;4859648;29;20129;-65
2022/10/06 02:55:02;;;;;;;13.02;2.60;;;12.40;99.90;;;;;;4860359;29;21096;-65
2022/10/06 02:57:28;;;;;;;14.13;3.05;;;12.50;99.90;;;;;;4857833;29;20049;-64
2022/10/06 02:59:54;;;;;;;8.77;2.53;;;12.40;99.90;;;;;;4855172;29;20106;-65
2022/10/06 03:02:20;;;;;;;16.60;2.83;;;12.40;99.90;;;;;;4857840;29;20053;-64
2022/10/06 03:04:45;;;;;;;18.23;3.00;;;12.40;99.90;;;;;;4857893;29;20048;-64
2022/10/06 03:07:11;;;;;;;18.48;2.60;;;12.40;99.90;;;;;;4859129;29;20138;-65
2022/10/06 03:09:37;;;;;;;14.65;2.40;;;12.40;99.90;;;;;;4854223;29;20080;-64
2022/10/06 03:12:02;;;;;;;19.92;2.60;;;12.30;99.90;;;;;;4855826;29;20041;-65
2022/10/06 03:14:28;;;;;;;15.52;3.20;;;12.30;99.90;;;;;;4856505;29;20148;-64
2022/10/06 03:16:55;;;;;;;14.50;2.47;;;12.30;99.90;;;;;;4836498;29;20050;-64
2022/10/06 03:19:21;;;;;;;12.47;2.60;;;12.30;99.90;;;;;;4855020;29;20046;-64
2022/10/06 03:21:47;;;;;;;17.83;2.38;;;12.30;99.90;;;;;;4855926;29;20309;-65
2022/10/06 03:24:14;;;;;;;11.82;2.13;;;12.30;99.90;;;;;;4856501;29;20125;-64
2022/10/06 03:26:42;;;;;;;16.75;3.00;;;12.20;99.90;;;;;;4853856;29;20063;-67
2022/10/06 03:29:09;;;;;;;10.98;2.83;;;12.20;99.90;;;;;;4854229;29;20109;-67
2022/10/06 03:31:35;;;;;;;13.68;2.40;;;12.20;99.90;;;;;;4857621;29;20061;-65
2022/10/06 03:34:01;;;;;;;10.65;2.20;;;12.10;99.90;;;;;;4840093;29;20411;-65
2022/10/06 03:36:31;;;;;;;21.13;2.25;;;12.10;99.90;;;;;;4854481;29;20057;-64
2022/10/06 03:38:57;;;;;;;10.77;2.58;;;12.10;99.90;;;;;;4859264;29;20395;-65
2022/10/06 03:41:25;;;;;;;15.00;2.97;;;12.10;99.90;;;;;;4857751;29;20060;-65
2022/10/06 03:43:52;;;;;;;9.82;2.22;;;12.10;99.90;;;;;;4859576;29;20075;-64
2022/10/06 03:46:21;;;;;;;10.25;2.38;;;12.00;99.90;;;;;;4859756;29;20049;-65
2022/10/06 03:48:47;;;;;;;;;;;12.00;99.90;;;;;;4859418;29;20069;-65
2022/10/06 03:51:16;;;;;;;12.52;2.28;;;12.00;99.90;;;;;;4872699;29;20294;-65
2022/10/06 03:53:46;;;;;;;12.60;2.58;;;11.90;99.90;;;;;;4859156;29;20413;-64
2022/10/06 03:56:15;;;;;;;12.52;2.70;;;11.90;99.90;;;;;;4842286;29;20046;-64
2022/10/06 03:58:44;;;;;;;16.65;2.60;;;11.90;99.90;;;;;;4850723;29;20492;-64
2022/10/06 04:01:17;;;;;;;14.10;2.30;;;12.60;99.90;;;;;;4858343;29;20136;-65
2022/10/06 04:03:43;;;;;;;12.02;2.35;;;12.00;99.90;;;;;;4849204;29;20083;-65
2022/10/06 04:06:12;;;;;;;11.75;2.10;;;12.00;99.90;;;;;;4860682;29;20049;-64
2022/10/06 04:08:39;;;;;;;14.30;2.28;;;12.00;99.90;;;;;;4859757;29;20493;-64
2022/10/06 04:11:20;;;;;;;10.50;2.15;;;12.00;99.90;;;;;;4859179;29;20484;-64
2022/10/06 04:13:47;;;;;;;13.77;2.40;;;12.00;99.90;;;;;;4859996;29;20106;-65
2022/10/06 04:16:21;;;;;;;12.45;2.28;;;12.00;99.90;;;;;;4856503;29;20037;-64
2022/10/06 04:19:13;;;;;;;12.38;2.30;;;12.00;99.90;;;;;;4840270;29;20056;-62
2022/10/06 04:21:41;;;;;;;13.25;2.47;;;12.20;99.90;;;;;;4855695;29;20149;-64
2022/10/06 04:24:09;;;;;;;11.07;2.23;;;11.90;99.90;;;;;;4854218;29;20046;-64
2022/10/06 04:26:43;;;;;;;;;;;11.80;99.90;;;;;;4855374;29;20432;-66
2022/10/06 04:29:09;;;;;;;12.77;2.95;;;11.80;99.90;;;;;;4855920;29;19924;-65
2022/10/06 04:31:37;;;;;;;11.88;2.30;;;11.70;99.90;;;;;;4850577;29;20057;-65
2022/10/06 04:34:05;;;;;;;11.65;2.30;;;11.70;99.90;;;;;;4854743;29;20057;-64
2022/10/06 04:36:33;;;;;;;9.37;1.90;;;11.70;99.90;;;;;;4851847;29;20056;-65
2022/10/06 04:39:01;;;;;;;11.00;2.75;;;11.70;99.90;;;;;;4855766;29;20895;-64
2022/10/06 04:41:38;;;;;;;17.90;3.03;;;11.70;99.90;;;;;;4859025;29;20125;-64
2022/10/06 04:44:04;;;;;;;12.52;1.95;;;11.60;99.90;;;;;;4857761;29;20045;-63
2022/10/06 04:46:32;;;;;;;17.45;2.63;;;11.60;99.90;;;;;;4854243;29;20446;-64
2022/10/06 04:48:57;;;;;;;11.60;2.53;;;11.60;99.90;;;;;;4844802;29;20407;-65
2022/10/06 04:51:24;;;;;;;15.40;2.92;;;11.60;99.90;;;;;;4855067;29;20052;-65
2022/10/06 04:53:50;;;;;;;11.00;2.08;;;11.60;99.90;;;;;;4854575;29;20132;-66
2022/10/06 04:56:17;;;;;;;16.63;2.83;;;11.50;99.90;;;;;;4848317;29;20125;-66
2022/10/06 04:58:45;;;;;;;13.75;3.10;;;11.50;99.90;;;;;;4859046;29;20548;-64
2022/10/06 05:01:28;;;;;;;15.60;2.25;;;11.50;99.90;;;;;;4857401;29;20054;-64
2022/10/06 05:03:56;;;;;;;13.38;2.33;;;11.50;99.90;;;;;;4857842;29;20098;-65
2022/10/06 05:06:27;;;;;;;12.77;2.30;;;11.50;99.90;;;;;;4847912;29;20673;-65
2022/10/06 05:11:44;;;;;;;21.55;3.17;;;11.50;99.90;;;;;;3643149;24;20524;-65
2022/10/06 05:14:10;;;;;;;18.25;3.13;;;11.50;99.90;;;;;;4855146;29;20065;-65
2022/10/06 05:16:38;;;;;;;15.85;2.70;;;11.40;99.90;;;;;;4858382;29;20041;-65
2022/10/06 05:19:04;;;;;;;12.25;2.80;;;11.50;99.90;;;;;;4856898;29;20042;-68
2022/10/06 05:21:31;;;;;;;15.82;2.60;;;11.40;99.90;;;;;;4861637;29;20483;-66
2022/10/06 05:23:57;;;;;;;16.35;2.72;;;11.40;99.90;;;;;;4861023;29;20053;-67
2022/10/06 05:26:25;;;;;;;11.82;2.25;;;11.40;99.90;;;;;;4860474;29;20052;-67
2022/10/06 05:28:51;;;;;;;14.52;2.58;;;11.40;99.90;;;;;;4844041;29;20473;-65
2022/10/06 05:31:19;;;;;;;17.02;2.45;;;11.40;99.90;;;;;;4857326;29;20049;-66
2022/10/06 05:33:45;;;;;;;11.73;2.10;;;11.40;99.90;;;;;;4861225;29;20124;-65
2022/10/06 05:36:18;;;;;;;15.73;2.47;;;11.40;99.90;;;;;;4860251;29;20125;-66
2022/10/06 05:38:44;;;;;;;21.60;2.72;;;11.40;99.90;;;;;;4860601;29;20092;-67
2022/10/06 05:41:13;;;;;;;15.48;3.10;;;11.40;99.90;;;;;;4862161;29;20120;-66
2022/10/06 05:43:39;;;;;;;10.65;2.88;;;11.40;99.90;;;;;;4861675;29;20061;-67
2022/10/06 05:46:09;;;;;;;10.48;2.20;;;11.40;99.90;;;;;;4863614;29;20068;-66
2022/10/06 05:48:34;;;;;;;15.07;2.53;;;11.40;99.90;;;;;;4862079;29;20124;-66
2022/10/06 05:51:06;;;;;;;13.95;2.55;;;11.30;99.90;;;;;;4860488;29;20129;-66
2022/10/06 05:53:34;;;;;;;15.82;2.55;;;11.40;99.90;;;;;;4858010;29;20060;-66
2022/10/06 05:56:07;;;;;;;14.85;2.78;;;11.40;99.90;;;;;;4855816;29;20398;-66
2022/10/06 05:58:35;;;;;;;14.70;2.58;;;11.40;99.90;;;;;;4860519;29;20049;-66
2022/10/06 06:01:23;;;;;;;12.20;2.40;;;11.30;99.90;;;;;;4862125;29;20033;-66
2022/10/06 06:03:51;;;;;;;24.23;2.95;;;11.30;99.90;;;;;;4836665;29;20831;-67
2022/10/06 06:06:33;;;;;;;13.13;2.63;;;11.30;99.90;;;;;;4859254;29;20038;-67
2022/10/06 06:09:01;;;;;;;11.57;2.50;;;11.40;99.90;;;;;;4856585;29;20061;-67
2022/10/06 06:11:30;;;;;;;16.20;2.78;;;11.30;99.90;;;;;;4853939;29;20509;-66
2022/10/06 06:14:01;;;;;;;13.70;2.92;;;11.30;99.90;;;;;;4851763;29;20068;-66
2022/10/06 06:16:31;;;;;;;15.77;2.85;;;11.40;99.90;;;;;;4859645;29;20052;-65
2022/10/06 06:18:58;;;;;;;10.93;2.38;;;11.30;99.90;;;;;;4859485;29;20393;-66
2022/10/06 06:21:24;;;;;;;17.38;2.67;;;11.40;99.90;;;;;;4833852;29;20458;-66
2022/10/06 06:23:51;;;;;;;14.00;3.08;;;11.40;99.90;;;;;;4833053;29;21747;-67
2022/10/06 06:26:24;;;;;;;12.45;3.15;;;11.40;99.90;;;;;;4858416;29;20082;-66
2022/10/06 06:28:52;;;;;;;10.63;2.55;;;11.40;99.90;;;;;;4859844;29;20416;-66
2022/10/06 06:31:25;;;;;;;11.02;2.42;;;11.40;99.90;;;;;;4858138;29;20073;-67
2022/10/06 06:33:52;;;;;;;16.15;2.92;;;11.50;99.90;;;;;;4861482;29;20050;-67
2022/10/06 06:36:18;;;;;;;15.35;2.45;;;11.50;99.90;;;;;;4856669;29;20045;-67
2022/10/06 06:38:50;;;;;;;18.60;3.13;;;11.50;99.90;;;;;;4860807;29;20076;-67
2022/10/06 06:41:21;;;;;;;14.75;2.85;;;11.60;99.90;;;;;;4858228;29;20417;-67
2022/10/06 06:43:48;;;;;;;19.30;2.97;;;11.60;99.90;;;;;;4850493;29;20089;-66
2022/10/06 06:46:22;;;;;;;18.02;3.15;;;11.70;99.90;;;;;;4858207;29;20045;-67
2022/10/06 06:48:49;;;;;;;10.93;2.80;;;11.80;99.90;;;;;;4861459;29;20464;-66
2022/10/06 06:51:15;;;;;;;15.60;3.13;;;11.80;99.90;;;;;;4858603;29;20556;-66
2022/10/06 06:53:41;;;;;;;16.08;3.63;;;12.00;99.90;;;;;;4859036;29;20045;-67
2022/10/06 06:56:07;;;;;;;14.90;2.60;;;12.00;99.90;;;;;;4845571;29;20184;-66
2022/10/06 06:58:34;;;;;;;32.67;3.78;;;12.10;99.90;;;;;;4858762;29;20046;-66
2022/10/06 07:01:12;;;;;;;11.82;2.70;;;12.10;99.90;;;;;;4836947;29;20049;-66
2022/10/06 07:03:44;;;;;;;17.83;3.15;;;12.20;99.90;;;;;;4842458;29;20558;-66
2022/10/06 07:06:12;;;;;;;20.35;2.92;;;12.20;99.90;;;;;;4856884;29;20164;-66
2022/10/06 07:08:43;;;;;;;18.85;3.20;;;12.30;99.90;;;;;;4850559;29;20464;-66
2022/10/06 07:11:16;;;;;;;13.23;2.45;;;12.40;99.90;;;;;;4857216;29;20413;-66
2022/10/06 07:13:42;;;;;;;20.65;3.40;;;12.60;99.90;;;;;;4850275;29;20058;-66
2022/10/06 07:27:28;;;;;;;20.77;3.40;;;13.00;99.90;;;;;;4853599;29;20098;-66
2022/10/06 07:29:55;;;;;;;16.60;3.08;;;12.90;99.90;;;;;;4838663;29;20128;-65
2022/10/06 07:32:25;;;;;;;17.02;2.53;;;12.90;99.90;;;;;;4856789;29;20041;-66
2022/10/06 07:34:51;;;;;;;13.68;2.80;;;13.00;99.90;;;;;;4858813;29;20045;-66
2022/10/06 07:37:17;;;;;;;12.77;3.13;;;13.00;99.90;;;;;;4846579;29;20037;-66
2022/10/06 07:39:44;;;;;;;14.32;2.50;;;13.20;99.90;;;;;;4853770;29;20087;-66
2022/10/06 07:42:14;;;;;;;14.75;2.60;;;13.30;99.90;;;;;;4857542;29;20093;-66
2022/10/06 07:45:37;;;;;;;17.77;2.95;;;13.40;99.90;;;;;;4859165;29;20049;-65
2022/10/06 07:47:30;;;;;;;17.42;2.78;;;13.50;99.90;;;;;;4857462;29;20100;-66
2022/10/06 07:49:57;;;;;;;13.57;2.53;;;13.60;99.90;;;;;;4856432;29;20041;-66
2022/10/06 07:52:23;;;;;;;18.15;3.22;;;13.70;99.90;;;;;;4858010;29;20061;-66
2022/10/06 07:54:49;;;;;;;16.90;2.90;;;13.80;99.90;;;;;;4855188;29;20125;-66
2022/10/06 07:57:15;;;;;;;13.85;3.00;;;13.90;99.90;;;;;;4839578;29;20468;-66
2022/10/06 07:59:40;;;;;;;19.13;3.05;;;14.10;99.90;;;;;;4858117;29;20392;-67
2022/10/06 08:02:06;;;;;;;14.95;3.25;;;14.20;99.90;;;;;;4857037;29;20037;-66
2022/10/06 08:04:32;;;;;;;12.68;2.40;;;14.20;99.90;;;;;;4856315;29;20117;-67
2022/10/06 08:06:57;;;;;;;14.65;2.75;;;14.30;99.90;;;;;;4854729;29;20046;-67
2022/10/06 08:09:23;;;;;;;15.07;2.92;;;14.40;99.90;;;;;;4850251;29;20529;-67
2022/10/06 08:11:49;;;;;;;9.65;2.42;;;14.50;99.90;;;;;;4852630;29;20054;-67
2022/10/06 08:14:15;;;;;;;18.48;2.60;;;14.50;99.90;;;;;;4853326;29;20046;-67
2022/10/06 08:16:40;;;;;;;9.93;3.05;;;14.50;99.90;;;;;;4852515;29;20408;-68
2022/10/06 08:19:06;;;;;;;12.23;2.70;;;14.60;99.90;;;;;;4845799;29;20049;-68
2022/10/06 08:21:36;;;;;;;14.52;2.72;;;14.60;99.90;;;;;;4845542;29;20037;-67
2022/10/06 08:24:02;;;;;;;16.67;2.95;;;14.60;99.90;;;;;;4831503;29;20186;-67
2022/10/06 08:26:30;;;;;;;18.83;2.80;;;14.80;99.90;;;;;;4850636;29;20124;-66
2022/10/06 08:29:01;;;;;;;17.27;3.17;;;14.70;99.90;;;;;;4844340;29;20052;-68
2022/10/06 08:31:28;;;;;;;12.98;2.17;;;14.80;99.90;;;;;;4857082;29;20057;-66
2022/10/06 08:33:55;;;;;;;12.80;2.88;;;14.90;99.90;;;;;;4858908;29;20045;-66
2022/10/06 08:36:23;;;;;;;15.77;2.45;;;15.00;99.90;;;;;;4856401;29;20048;-66
2022/10/06 08:38:51;;;;;;;10.65;2.22;;;15.20;99.90;;;;;;4843886;29;20045;-66
2022/10/06 08:41:20;;;;;;;13.10;2.47;;;15.20;99.90;;;;;;4845067;29;20446;-66
2022/10/06 08:44:06;;;;;;;18.13;2.65;;;15.30;99.90;;;;;;4852186;29;20050;-66
2022/10/06 08:46:48;;;;;;;11.57;2.60;;;15.50;99.90;;;;;;4845475;29;20053;-65
2022/10/06 08:49:24;;;;;;;10.48;2.92;;;15.70;99.90;;;;;;4854234;29;20041;-67
2022/10/06 08:51:54;;;;;;;17.55;3.42;;;15.80;99.90;;;;;;4851188;29;20554;-66
2022/10/06 08:54:45;;;;;;;13.15;2.72;;;15.90;99.90;;;;;;4850654;29;20512;-67
2022/10/06 08:57:21;;;;;;;16.70;2.30;;;16.00;99.90;;;;;;4851929;29;20073;-66
2022/10/06 08:59:52;;;;;;;14.60;2.53;;;16.20;99.90;;;;;;4858307;29;20053;-67
2022/10/06 09:02:28;;;;;;;13.85;2.45;;;16.30;99.90;;;;;;4842838;29;20085;-67
2022/10/06 09:05:01;;;;;;;18.13;2.90;;;16.30;99.90;;;;;;4862305;29;20054;-66
2022/10/06 09:07:47;;;;;;;18.77;3.38;;;16.40;99.90;;;;;;4842855;29;20050;-67
2022/10/06 09:10:37;;;;;;;13.82;3.10;;;16.60;99.90;;;;;;4861419;29;20065;-67
2022/10/06 09:13:12;;;;;;;10.85;2.35;;;16.70;99.90;;;;;;4857619;29;20418;-66
2022/10/06 09:15:46;;;;;;;14.15;2.58;;;16.80;99.90;;;;;;4860497;29;20037;-67
2022/10/06 09:18:34;;;;;;;21.20;3.15;;;16.90;99.90;;;;;;4854382;29;20064;-66
2022/10/06 09:21:13;;;;;;;16.13;2.63;;;17.00;99.90;;;;;;4858998;29;20045;-66
2022/10/06 09:23:46;;;;;;;14.73;2.78;;;17.10;99.90;;;;;;4857213;29;20132;-66
2022/10/06 09:26:27;;;;;;;12.88;2.35;;;17.20;99.90;;;;;;4862445;29;20191;-67
2022/10/06 09:28:53;;;;;;;15.70;2.75;;;17.20;99.90;;;;;;4861429;29;20081;-67
2022/10/06 09:31:28;;;;;;;10.63;2.50;;;17.30;99.90;;;;;;4844828;29;20050;-68
2022/10/06 09:34:17;;;;;;;12.18;2.45;;;17.40;99.90;;;;;;4842849;29;20054;-67
2022/10/06 09:37:09;;;;;;;13.68;2.45;;;17.40;99.90;;;;;;4859589;29;20107;-66
2022/10/06 09:39:38;;;;;;;17.38;2.58;;;17.40;99.90;;;;;;4853319;29;20448;-67
2022/10/06 09:42:24;;;;;;;34.70;3.80;;;17.50;99.90;;;;;;4857920;29;20050;-68
2022/10/06 09:44:56;;;;;;;12.73;2.30;;;17.50;99.90;;;;;;4843444;29;20505;-68
2022/10/06 09:47:27;;;;;;;9.88;2.33;;;17.40;99.90;;;;;;4852710;29;20038;-68
2022/10/06 09:50:13;;;;;;;15.77;2.53;;;17.40;99.90;;;;;;4858750;29;20144;-67
2022/10/06 09:52:59;;;;;;;13.32;2.33;;;17.60;99.90;;;;;;4858436;29;20433;-67
2022/10/06 09:55:29;;;;;;;17.50;3.20;;;17.70;99.90;;;;;;4856892;29;20049;-67
2022/10/06 09:57:56;;;;;;;11.73;2.33;;;17.80;99.90;;;;;;4857577;29;20072;-67
2022/10/06 10:00:29;;;;;;;12.07;2.55;;;17.50;99.90;;;;;;4859029;29;20060;-67
2022/10/06 10:02:57;;;;;;;13.40;2.60;;;17.80;99.90;;;;;;4858641;29;20045;-67
2022/10/06 10:05:23;;;;;;;;;;;17.90;99.90;;;;;;4859760;29;20053;-68
2022/10/06 10:08:08;;;;;;;15.85;2.63;;;17.90;99.90;;;;;;4845564;29;19967;-68
2022/10/06 10:10:36;;;;;;;10.05;2.35;;;18.00;99.90;;;;;;4859236;29;20084;-68
2022/10/06 10:13:02;;;;;;;12.55;2.40;;;18.20;99.90;;;;;;4841553;29;20081;-67
2022/10/06 10:15:37;;;;;;;8.57;2.03;;;18.30;99.90;;;;;;4860269;29;20438;-67
2022/10/06 10:18:12;;;;;;;16.15;2.15;;;18.50;99.60;;;;;;4859175;29;20490;-67
2022/10/06 10:20:49;;;;;;;10.00;2.20;;;18.40;99.00;;;;;;4857081;29;20065;-68
2022/10/06 10:23:31;;;;;;;9.30;2.42;;;18.40;98.80;;;;;;4848726;29;20110;-68
2022/10/06 10:26:30;;;;;;;12.55;2.30;;;18.20;99.00;;;;;;4844448;29;20061;-68
2022/10/06 10:29:13;;;;;;;13.02;2.30;;;18.50;99.50;;;;;;4842431;29;20050;-67
2022/10/06 10:31:51;;;;;;;12.75;2.97;;;18.60;99.00;;;;;;4860291;29;20049;-69
2022/10/06 10:34:37;;;;;;;12.77;2.67;;;18.80;98.90;;;;;;4856057;29;20105;-68
2022/10/06 10:37:23;;;;;;;26.25;3.08;;;19.40;98.20;;;;;;4861033;29;20053;-68
2022/10/06 10:40:10;;;;;;;14.00;2.20;;;19.90;97.80;;;;;;4826510;29;20073;-68
2022/10/06 10:42:48;;;;;;;10.52;2.33;;;20.50;96.90;;;;;;4852352;29;20081;-67
2022/10/06 10:45:22;;;;;;;7.20;2.22;;;21.00;96.90;;;;;;4858512;29;20472;-68
2022/10/06 10:47:48;;;;;;;7.25;2.03;;;21.30;95.60;;;;;;4826735;29;20115;-67
2022/10/06 10:50:25;;;;;;;10.50;2.00;;;21.50;94.40;;;;;;4855950;29;20049;-67
2022/10/06 10:53:13;;;;;;;7.93;1.70;;;21.80;93.00;;;;;;4844641;29;20584;-67
2022/10/06 10:55:46;;;;;;;8.68;1.85;;;22.00;92.80;;;;;;4861082;29;20457;-68
2022/10/06 10:58:23;;;;;;;13.00;2.60;;;22.00;90.80;;;;;;4840022;29;20048;-67
2022/10/06 11:00:54;;;;;;;7.57;2.60;;;22.20;90.90;;;;;;4844572;29;20658;-67
2022/10/06 11:03:19;;;;;;;9.85;2.70;;;22.40;89.90;;;;;;4861534;29;20601;-67
2022/10/06 11:06:00;;;;;;;12.15;2.30;;;22.50;90.00;;;;;;4866057;29;20088;-67
2022/10/06 11:08:32;;;;;;;9.45;1.90;;;22.60;88.80;;;;;;4854413;29;20046;-68
2022/10/06 11:11:01;;;;;;;10.77;2.25;;;22.80;87.50;;;;;;4858599;29;20057;-67
2022/10/06 11:13:38;;;;;;;11.38;2.50;;;22.70;85.30;;;;;;4858092;29;20050;-68
2022/10/06 11:16:21;;;;;;;8.70;2.20;;;22.90;83.50;;;;;;4860985;29;20526;-68
2022/10/06 11:19:01;;;;;;;8.40;2.13;;;22.90;82.70;;;;;;4860381;29;20050;-68
2022/10/06 11:21:38;;;;;;;9.18;2.22;;;23.10;81.90;;;;;;4859517;29;20077;-68
2022/10/06 11:24:40;;;;;;;18.60;2.70;;;23.20;81.20;;;;;;4850638;29;20045;-68
2022/10/06 11:27:30;;;;;;;10.10;2.40;;;23.20;81.40;;;;;;4833190;29;20751;-69
2022/10/06 11:30:15;;;;;;;8.63;2.15;;;23.30;80.70;;;;;;4843361;29;20047;-69
2022/10/06 11:32:43;;;;;;;8.68;1.98;;;23.30;80.00;;;;;;4859319;29;20120;-68
2022/10/06 11:35:27;;;;;;;9.07;1.80;;;23.30;77.80;;;;;;4844464;29;20045;-68
2022/10/06 11:38:01;;;;;;;9.73;1.48;;;23.10;77.00;;;;;;4860108;29;20045;-68
2022/10/06 11:40:37;;;;;;;9.77;1.83;;;23.20;75.60;;;;;;4851992;29;20046;-68
2022/10/06 11:43:33;;;;;;;9.50;2.28;;;23.30;75.40;;;;;;4841906;29;20066;-68
2022/10/06 11:46:09;;;;;;;8.23;1.83;;;23.40;74.20;;;;;;4859540;29;20157;-68
2022/10/06 11:48:34;;;;;;;7.03;1.90;;;23.40;74.30;;;;;;4859505;29;20045;-68
2022/10/06 11:51:22;;;;;;;17.65;2.30;;;23.50;76.00;;;;;;4841975;29;20060;-69
2022/10/06 11:53:47;;;;;;;5.85;2.03;;;23.70;73.10;;;;;;4857101;29;20436;-66
2022/10/06 11:56:15;;;;;;;8.27;1.95;;;24.00;74.20;;;;;;4859042;29;20050;-69
2022/10/06 11:58:50;;;;;;;10.15;2.30;;;24.20;71.40;;;;;;4855751;29;20051;-68
2022/10/06 12:01:39;;;;;;;6.10;2.25;;;24.00;70.90;;;;;;4857447;29;20125;-69
2022/10/06 12:04:07;;;;;;;8.27;2.38;;;23.90;70.60;;;;;;4846393;29;20121;-68
2022/10/06 12:06:45;;;;;;;5.40;1.45;;;23.40;71.50;;;;;;4841218;29;20412;-68
2022/10/06 12:09:23;;;;;;;11.30;1.88;;;23.20;73.60;;;;;;4857582;29;20125;-67
2022/10/06 12:11:50;;;;;;;6.03;1.42;;;23.20;72.50;;;;;;4855210;29;20171;-68
2022/10/06 12:14:39;;;;;;;5.75;1.70;;;23.20;71.90;;;;;;4839173;29;20056;-69
2022/10/06 12:17:10;;;;;;;8.15;1.60;;;23.30;70.20;;;;;;4838393;29;20052;-68
2022/10/06 12:19:42;;;;;;;8.77;1.63;;;23.10;69.70;;;;;;4858492;29;20056;-68
2022/10/06 12:22:19;;;;;;;11.48;2.00;;;23.00;71.00;;;;;;4847760;29;20046;-67
2022/10/06 12:24:56;;;;;;;8.80;2.13;;;22.70;71.90;;;;;;4840274;29;20057;-66
2022/10/06 12:27:57;;;;;;;11.63;2.17;;;22.40;72.70;;;;;;4853516;29;20045;-68
2022/10/06 12:31:03;;;;;;;6.35;1.73;;;21.70;74.40;;;;;;4816997;29;21905;-67
2022/10/06 12:33:40;;;;;;;6.10;1.67;;;21.00;75.10;;;;;;4855269;29;20041;-67
2022/10/06 12:36:32;;;;;;;8.90;1.80;;;20.60;77.30;;;;;;4858896;29;20170;-67
2022/10/06 12:39:03;;;;;;;8.40;1.98;;;20.10;76.40;;;;;;4856099;29;20058;-68
2022/10/06 12:41:58;;;;;;;9.48;1.88;;;19.90;77.00;;;;;;4856272;29;20046;-68
2022/10/06 12:44:25;;;;;;;8.25;1.90;;;19.50;77.40;;;;;;4856385;29;20053;-67
2022/10/06 12:46:53;;;;;;;8.73;1.80;;;19.30;78.40;;;;;;4852517;29;20045;-68
2022/10/06 12:49:42;;;;;;;7.00;1.75;;;19.10;78.90;;;;;;4856550;29;20042;-68
2022/10/06 12:52:17;;;;;;;13.95;2.30;;;19.00;80.00;;;;;;4854408;29;20396;-68
2022/10/06 12:54:58;;;;;;;10.95;2.03;;;18.90;81.30;;;;;;4825110;29;20049;-68
2022/10/06 12:57:29;;;;;;;12.00;2.28;;;18.70;82.70;;;;;;4856767;29;20085;-68
2022/10/06 12:59:55;;;;;;;12.65;2.17;;;18.50;82.40;;;;;;4853622;29;20050;-68
2022/10/06 13:02:24;;;;;;;7.07;1.73;;;18.40;82.80;;;;;;4839212;29;20047;-68
2022/10/06 13:04:52;;;;;;;7.65;1.67;;;18.30;83.70;;;;;;4858702;29;20045;-68
2022/10/06 13:07:21;;;;;;;7.28;2.03;;;18.20;83.30;;;;;;4857568;29;20052;-68
2022/10/06 13:09:49;;;;;;;10.23;2.03;;;17.90;83.80;;;;;;4858142;29;20461;-68
2022/10/06 13:12:23;;;;;;;7.35;2.13;;;18.00;84.80;;;;;;4858467;29;20076;-68
2022/10/06 13:15:09;;;;;;;8.77;1.95;;;17.80;84.70;;;;;;4857972;29;20508;-68